Time;durP1;ratioP1;P1;durP2;ratioP2;P2;SDS_P1;SDS_P2;PMS_P1;PMS_P2;Temp;Humidity;BMP_temperature;BMP_pressure;BME280_temperature;BME280_humidity;BME280_pressure;Samples;Min_cycle;Max_cycle;Signal;HPM_P1;HPM_P2
2023/07/27 00:01:35;;;;;;;4.00;1.45;;;22.20;42.80;;;;;;6108449;29;20074;-75
2023/07/27 00:04:35;;;;;;;2.08;1.23;;;22.20;43.00;;;;;;6108453;29;20040;-78
2023/07/27 00:07:36;;;;;;;2.13;1.02;;;22.10;43.20;;;;;;6092096;29;20039;-77
2023/07/27 00:10:37;;;;;;;1.95;1.42;;;22.10;43.40;;;;;;6092441;29;20515;-78
2023/07/27 00:13:38;;;;;;;1.98;1.15;;;22.00;43.70;;;;;;6107512;29;20039;-76
2023/07/27 00:16:39;;;;;;;2.08;1.33;;;21.90;43.90;;;;;;6108094;29;20047;-77
2023/07/27 00:19:39;;;;;;;1.88;1.20;;;21.90;44.10;;;;;;6125606;29;20078;-76
2023/07/27 00:22:40;;;;;;;2.17;1.23;;;21.80;44.20;;;;;;6108073;29;20055;-76
2023/07/27 00:25:41;;;;;;;2.50;1.33;;;21.80;44.30;;;;;;6107657;29;20039;-75
2023/07/27 00:28:42;;;;;;;1.30;0.95;;;21.80;44.30;;;;;;6125387;29;20110;-76
2023/07/27 00:31:43;;;;;;;8.43;1.15;;;21.80;44.30;;;;;;6109201;29;20058;-75
2023/07/27 00:34:43;;;;;;;3.28;1.25;;;21.70;44.50;;;;;;6106827;29;20039;-75
2023/07/27 00:37:44;;;;;;;2.53;1.20;;;21.70;44.80;;;;;;6106168;29;20067;-75
2023/07/27 00:40:48;;;;;;;1.40;1.30;;;21.70;45.10;;;;;;6107551;29;20217;-75
2023/07/27 00:43:49;;;;;;;2.22;1.30;;;21.70;45.20;;;;;;6108460;29;20035;-77
2023/07/27 00:46:52;;;;;;;1.27;1.00;;;21.70;45.50;;;;;;6107555;29;20109;-75
2023/07/27 00:49:53;;;;;;;5.05;1.42;;;21.60;45.50;;;;;;6107245;29;20036;-75
2023/07/27 00:52:53;;;;;;;2.45;0.95;;;21.60;45.60;;;;;;6108148;29;20205;-76
2023/07/27 00:55:55;;;;;;;5.90;1.02;;;21.60;45.60;;;;;;6105957;29;20402;-77
2023/07/27 00:58:59;;;;;;;2.30;1.13;;;21.60;45.70;;;;;;6105692;29;20705;-77
2023/07/27 01:02:00;;;;;;;2.40;1.60;;;21.60;45.80;;;;;;6106465;29;20032;-77
2023/07/27 01:05:01;;;;;;;4.68;1.50;;;21.50;45.90;;;;;;6092044;29;20067;-77
2023/07/27 01:08:03;;;;;;;2.60;1.40;;;21.50;46.10;;;;;;6107509;29;20039;-75
2023/07/27 01:11:10;;;;;;;1.80;1.38;;;21.40;46.20;;;;;;6107802;29;20577;-76
2023/07/27 01:14:19;;;;;;;4.78;1.80;;;21.40;46.40;;;;;;6126688;29;20032;-76
2023/07/27 01:17:41;;;;;;;2.22;1.15;;;21.30;46.40;;;;;;6123863;29;20429;-77
2023/07/27 01:21:10;;;;;;;10.70;1.52;;;21.30;46.40;;;;;;6123684;29;20436;-77
2023/07/27 01:24:24;;;;;;;3.40;1.60;;;21.20;46.50;;;;;;6105856;29;20334;-76
2023/07/27 01:27:51;;;;;;;5.32;1.40;;;21.20;46.50;;;;;;6106861;29;20480;-76
2023/07/27 01:30:59;;;;;;;3.72;1.40;;;21.20;46.60;;;;;;6035123;29;20041;-76
2023/07/27 01:34:03;;;;;;;2.35;1.10;;;21.20;46.70;;;;;;6034579;29;20220;-77
2023/07/27 01:37:08;;;;;;;3.60;1.65;;;21.20;46.90;;;;;;6049184;29;20033;-77
2023/07/27 01:40:11;;;;;;;1.90;1.20;;;21.20;47.00;;;;;;6033708;29;20037;-77
2023/07/27 01:43:13;;;;;;;4.97;1.30;;;21.10;47.10;;;;;;6034693;29;20087;-77
2023/07/27 01:46:15;;;;;;;4.85;1.38;;;21.10;47.30;;;;;;6033931;29;20066;-76
2023/07/27 01:49:17;;;;;;;2.67;1.35;;;21.10;47.60;;;;;;6049742;29;20383;-75
2023/07/27 01:52:20;;;;;;;2.00;1.27;;;21.00;47.80;;;;;;6048568;29;20037;-75
2023/07/27 01:55:22;;;;;;;4.35;1.60;;;20.90;48.00;;;;;;6032534;29;20486;-76
2023/07/27 01:58:24;;;;;;;2.33;1.30;;;20.80;48.20;;;;;;6033742;29;20128;-77
2023/07/27 02:01:25;;;;;;;2.05;1.20;;;20.80;48.40;;;;;;6033875;29;20048;-77
2023/07/27 02:04:26;;;;;;;1.88;1.30;;;20.70;48.60;;;;;;6035358;29;20692;-77
2023/07/27 02:07:27;;;;;;;3.15;1.20;;;20.70;48.80;;;;;;6059904;29;20473;-75
2023/07/27 02:10:30;;;;;;;3.30;1.55;;;20.60;48.80;;;;;;6106230;29;20035;-74
2023/07/27 02:13:35;;;;;;;4.32;1.60;;;20.60;49.00;;;;;;6106210;29;20143;-77
2023/07/27 02:16:44;;;;;;;3.92;1.42;;;20.60;48.90;;;;;;6106054;29;20059;-77
2023/07/27 02:19:47;;;;;;;2.53;1.15;;;20.60;48.80;;;;;;6123545;29;20421;-75
2023/07/27 02:22:48;;;;;;;2.15;1.42;;;20.50;48.60;;;;;;6122667;29;20481;-77
2023/07/27 02:25:50;;;;;;;3.30;1.30;;;20.50;48.60;;;;;;6122883;29;20146;-76
2023/07/27 02:28:51;;;;;;;4.50;1.73;;;20.50;48.60;;;;;;6124494;29;20028;-77
2023/07/27 02:31:53;;;;;;;3.38;1.73;;;20.50;48.60;;;;;;6105645;29;20579;-76
2023/07/27 02:34:53;;;;;;;2.33;1.35;;;20.50;49.10;;;;;;6105390;29;20036;-77
2023/07/27 02:37:55;;;;;;;2.13;1.42;;;20.50;48.40;;;;;;6090176;29;20035;-76
2023/07/27 02:40:59;;;;;;;4.90;1.38;;;20.50;48.50;;;;;;6106065;29;20046;-77
2023/07/27 02:43:59;;;;;;;2.45;1.13;;;20.40;48.50;;;;;;6104841;29;20036;-76
2023/07/27 02:47:02;;;;;;;6.68;1.60;;;20.40;48.50;;;;;;6089350;29;20401;-76
2023/07/27 02:50:03;;;;;;;2.22;1.23;;;20.40;48.50;;;;;;6104484;29;20257;-76
2023/07/27 02:53:04;;;;;;;2.28;1.45;;;20.40;48.50;;;;;;6110308;29;20067;-75
2023/07/27 02:56:07;;;;;;;3.38;1.45;;;20.40;48.80;;;;;;6119932;29;20042;-75
2023/07/27 02:59:18;;;;;;;5.28;1.70;;;20.40;49.10;;;;;;6121994;29;20035;-77
2023/07/27 03:02:19;;;;;;;2.25;1.20;;;20.40;49.30;;;;;;6110485;29;20043;-76
2023/07/27 03:05:20;;;;;;;6.97;1.70;;;20.40;49.40;;;;;;6118043;29;20122;-77
2023/07/27 03:08:21;;;;;;;3.90;1.60;;;20.30;49.50;;;;;;6110270;29;20031;-78
2023/07/27 03:11:22;;;;;;;1.90;1.27;;;20.30;49.60;;;;;;6110698;29;20079;-77
2023/07/27 03:14:23;;;;;;;3.25;1.15;;;20.30;49.70;;;;;;6110372;29;20496;-77
2023/07/27 03:17:24;;;;;;;3.25;1.45;;;20.20;49.70;;;;;;6110399;29;20119;-76
2023/07/27 03:20:25;;;;;;;2.25;1.20;;;20.30;49.80;;;;;;6110524;29;20390;-77
2023/07/27 03:23:26;;;;;;;3.05;1.25;;;20.30;49.90;;;;;;6110688;29;20039;-77
2023/07/27 03:26:27;;;;;;;3.58;1.58;;;20.30;50.00;;;;;;6110472;29;20036;-77
2023/07/27 03:29:27;;;;;;;2.70;1.67;;;20.20;50.20;;;;;;6110856;29;20046;-77
2023/07/27 03:32:28;;;;;;;1.67;1.35;;;20.20;50.30;;;;;;6108636;29;20096;-76
2023/07/27 03:35:30;;;;;;;4.20;1.60;;;20.10;50.40;;;;;;6109622;29;20094;-76
2023/07/27 03:38:32;;;;;;;3.55;1.60;;;20.10;50.50;;;;;;6109978;29;20123;-76
2023/07/27 03:41:33;;;;;;;2.20;1.55;;;20.00;50.50;;;;;;6108774;29;20030;-77
2023/07/27 03:44:34;;;;;;;3.42;1.50;;;20.10;50.60;;;;;;6110008;29;20055;-77
2023/07/27 03:47:34;;;;;;;2.80;1.33;;;20.00;50.50;;;;;;6126518;29;20042;-75
2023/07/27 03:50:35;;;;;;;1.88;1.40;;;20.00;50.50;;;;;;6126699;29;20055;-77
2023/07/27 03:53:36;;;;;;;1.63;1.10;;;20.00;50.60;;;;;;6093108;29;20032;-77
2023/07/27 03:56:38;;;;;;;2.75;1.63;;;20.00;50.60;;;;;;6108136;29;20035;-77
2023/07/27 03:59:39;;;;;;;1.92;1.30;;;19.90;50.80;;;;;;6108517;29;20038;-76
2023/07/27 04:02:40;;;;;;;2.83;1.80;;;19.90;51.00;;;;;;6091790;29;20051;-75
2023/07/27 04:05:41;;;;;;;4.57;1.55;;;19.80;51.10;;;;;;6107885;29;20114;-75
2023/07/27 04:08:42;;;;;;;4.00;1.75;;;19.80;51.10;;;;;;6107870;29;20046;-76
2023/07/27 04:11:43;;;;;;;3.05;1.60;;;19.70;51.10;;;;;;6108622;29;20128;-78
2023/07/27 04:14:44;;;;;;;2.78;1.58;;;19.70;51.20;;;;;;6092752;29;20103;-76
2023/07/27 04:17:44;;;;;;;2.08;1.20;;;19.70;51.30;;;;;;6125125;29;20135;-76
2023/07/27 04:20:45;;;;;;;3.63;1.50;;;19.70;51.60;;;;;;6107683;29;20046;-75
2023/07/27 04:23:46;;;;;;;3.50;1.17;;;19.60;51.70;;;;;;6108134;29;20027;-78
2023/07/27 04:26:47;;;;;;;6.78;1.42;;;19.60;51.80;;;;;;6108812;29;20588;-77
2023/07/27 04:29:48;;;;;;;1.77;1.20;;;19.60;51.90;;;;;;6107672;29;20043;-75
2023/07/27 04:32:48;;;;;;;5.35;1.48;;;19.60;51.90;;;;;;6107398;29;20114;-75
2023/07/27 04:35:49;;;;;;;2.40;1.52;;;19.60;51.60;;;;;;6107148;29;20048;-76
2023/07/27 04:38:50;;;;;;;3.00;1.40;;;19.60;51.50;;;;;;6107952;29;20040;-77
2023/07/27 04:41:51;;;;;;;2.63;1.30;;;19.60;51.40;;;;;;6125161;29;20019;-77
2023/07/27 04:44:52;;;;;;;2.65;1.58;;;19.70;51.20;;;;;;6108722;29;20090;-77
2023/07/27 04:47:52;;;;;;;4.05;1.45;;;19.60;51.10;;;;;;6092081;29;20036;-77
2023/07/27 04:50:53;;;;;;;5.50;1.33;;;19.70;51.00;;;;;;6107411;29;20043;-76
2023/07/27 04:53:54;;;;;;;2.22;1.40;;;19.70;50.90;;;;;;6119349;29;20040;-76
2023/07/27 04:56:55;;;;;;;6.38;1.67;;;19.70;50.90;;;;;;6121752;29;20347;-77
2023/07/27 04:59:56;;;;;;;4.78;1.52;;;19.70;51.00;;;;;;6106129;29;20039;-77
2023/07/27 05:02:59;;;;;;;7.72;1.63;;;19.70;51.30;;;;;;6121211;29;20559;-78
2023/07/27 05:05:59;;;;;;;4.32;1.75;;;19.70;51.60;;;;;;6104401;29;20055;-77
2023/07/27 05:09:00;;;;;;;3.38;1.42;;;19.70;51.70;;;;;;6123361;29;20035;-79
2023/07/27 05:12:01;;;;;;;4.03;1.30;;;19.60;51.80;;;;;;6107527;29;20131;-75
2023/07/27 05:15:02;;;;;;;2.72;1.65;;;19.60;51.90;;;;;;6106955;29;20396;-76
2023/07/27 05:18:03;;;;;;;4.50;2.08;;;19.60;51.90;;;;;;6125524;29;20071;-76
2023/07/27 05:21:04;;;;;;;4.15;1.77;;;19.60;52.10;;;;;;6124674;29;20054;-76
2023/07/27 05:24:05;;;;;;;5.30;1.70;;;19.70;52.20;;;;;;6105828;29;20032;-76
2023/07/27 05:27:06;;;;;;;2.63;1.48;;;19.70;52.30;;;;;;6106996;29;20045;-77
2023/07/27 05:30:07;;;;;;;3.45;1.70;;;19.70;52.20;;;;;;6106186;29;20035;-76
2023/07/27 05:33:08;;;;;;;2.78;1.75;;;19.70;52.20;;;;;;6124050;29;20455;-76
2023/07/27 05:36:09;;;;;;;2.17;1.50;;;19.70;52.20;;;;;;6105851;29;20035;-76
2023/07/27 05:39:10;;;;;;;3.95;2.20;;;19.70;52.20;;;;;;6107166;29;20133;-77
2023/07/27 05:42:10;;;;;;;4.35;1.45;;;19.70;52.20;;;;;;6107115;29;20131;-76
2023/07/27 05:45:11;;;;;;;1.75;1.50;;;19.70;52.80;;;;;;6106617;29;20039;-77
2023/07/27 05:48:12;;;;;;;10.45;1.63;;;19.70;52.30;;;;;;6122853;29;20043;-76
2023/07/27 05:51:13;;;;;;;3.20;1.70;;;19.60;52.30;;;;;;6122456;29;20126;-76
2023/07/27 05:54:14;;;;;;;3.53;1.50;;;19.70;52.30;;;;;;6120187;29;20040;-77
2023/07/27 05:57:14;;;;;;;12.75;2.05;;;19.70;52.20;;;;;;6123251;29;20039;-77
2023/07/27 06:00:16;;;;;;;2.05;1.30;;;19.70;52.20;;;;;;6122308;29;20138;-76
2023/07/27 06:03:18;;;;;;;5.95;2.50;;;19.70;52.00;;;;;;6105495;29;20127;-76
2023/07/27 06:06:19;;;;;;;5.97;1.73;;;19.80;52.50;;;;;;6123568;29;20152;-75
2023/07/27 06:09:20;;;;;;;11.00;2.05;;;19.90;51.70;;;;;;6122174;29;20084;-77
2023/07/27 06:12:21;;;;;;;5.43;1.80;;;19.90;51.40;;;;;;6109853;29;20036;-77
2023/07/27 06:15:22;;;;;;;4.38;1.75;;;20.00;51.30;;;;;;6087074;29;20040;-79
2023/07/27 06:18:22;;;;;;;18.27;1.80;;;20.10;51.10;;;;;;6105291;29;20040;-79
2023/07/27 06:21:23;;;;;;;2.47;1.38;;;20.10;51.00;;;;;;6087321;29;20536;-77
2023/07/27 06:24:24;;;;;;;5.85;1.70;;;20.30;50.80;;;;;;6100751;29;20036;-78
2023/07/27 06:27:25;;;;;;;2.38;1.70;;;20.40;50.60;;;;;;6109897;29;20043;-79
2023/07/27 06:30:26;;;;;;;4.88;1.50;;;20.50;50.40;;;;;;6128687;29;20099;-77
2023/07/27 06:33:27;;;;;;;2.35;1.60;;;20.60;50.20;;;;;;6127778;29;20024;-80
2023/07/27 06:36:28;;;;;;;10.65;2.33;;;20.60;50.00;;;;;;6131931;29;20027;-78
2023/07/27 06:39:29;;;;;;;2.15;1.40;;;20.70;50.00;;;;;;6113637;29;20036;-79
2023/07/27 06:42:29;;;;;;;4.07;1.83;;;20.70;49.90;;;;;;6129582;29;20047;-77
2023/07/27 06:45:30;;;;;;;3.38;1.85;;;20.80;49.80;;;;;;6127881;29;20444;-77
2023/07/27 06:48:31;;;;;;;3.88;1.70;;;20.90;49.60;;;;;;6127299;29;20064;-76
2023/07/27 06:51:32;;;;;;;7.95;1.95;;;21.00;49.50;;;;;;6110688;29;20445;-76
2023/07/27 06:54:33;;;;;;;3.08;1.67;;;21.10;49.20;;;;;;6110196;29;20042;-75
2023/07/27 06:57:34;;;;;;;4.03;1.70;;;21.20;49.00;;;;;;6127023;29;20039;-77
2023/07/27 07:00:35;;;;;;;2.65;1.73;;;21.40;48.90;;;;;;6094725;29;20035;-77
2023/07/27 07:03:36;;;;;;;3.70;1.95;;;21.50;48.60;;;;;;6127834;29;20051;-76
2023/07/27 07:06:37;;;;;;;3.13;1.40;;;21.70;48.30;;;;;;6110952;29;20396;-76
2023/07/27 07:09:38;;;;;;;2.65;1.77;;;21.80;48.00;;;;;;6102613;29;20103;-77
2023/07/27 07:12:39;;;;;;;2.42;1.63;;;21.90;47.70;;;;;;6087245;29;20051;-76
2023/07/27 07:15:40;;;;;;;5.95;1.50;;;22.00;46.90;;;;;;6104581;29;20486;-75
2023/07/27 07:18:41;;;;;;;3.05;1.50;;;22.10;46.20;;;;;;6086798;29;20337;-75
2023/07/27 07:21:42;;;;;;;4.60;1.90;;;22.20;46.00;;;;;;6107981;29;20495;-76
2023/07/27 07:24:43;;;;;;;2.05;1.20;;;22.30;45.70;;;;;;6127242;29;20083;-77
2023/07/27 07:27:43;;;;;;;2.58;1.48;;;22.50;45.40;;;;;;6111609;29;20060;-77
2023/07/27 07:30:44;;;;;;;11.10;1.90;;;22.60;45.10;;;;;;6110989;29;20415;-75
2023/07/27 07:33:45;;;;;;;3.22;1.67;;;22.70;45.10;;;;;;6129080;29;20104;-78
2023/07/27 07:36:46;;;;;;;8.85;1.77;;;22.80;44.90;;;;;;6129189;29;20043;-77
2023/07/27 07:39:46;;;;;;;2.58;1.60;;;22.90;44.80;;;;;;6129994;29;20027;-76
2023/07/27 07:42:47;;;;;;;7.85;1.55;;;23.10;44.50;;;;;;6112514;29;20115;-78
2023/07/27 07:45:48;;;;;;;2.85;1.40;;;23.30;44.00;;;;;;6111729;29;20032;-77
2023/07/27 07:48:49;;;;;;;5.38;1.90;;;23.40;43.40;;;;;;6112402;29;20046;-77
2023/07/27 07:51:50;;;;;;;3.17;1.70;;;23.50;43.10;;;;;;6112708;29;20038;-77
2023/07/27 07:54:50;;;;;;;3.55;1.40;;;23.60;42.70;;;;;;6130322;29;20038;-75
2023/07/27 07:57:51;;;;;;;2.63;1.45;;;23.80;42.50;;;;;;6126750;29;20166;-76
2023/07/27 08:00:52;;;;;;;3.50;1.50;;;23.90;42.20;;;;;;6112157;29;20035;-77
2023/07/27 08:03:53;;;;;;;3.08;2.17;;;24.00;41.90;;;;;;6126121;29;20035;-77
2023/07/27 08:06:54;;;;;;;3.47;1.60;;;24.10;41.60;;;;;;6127304;29;20113;-76
2023/07/27 08:09:54;;;;;;;5.45;1.70;;;24.10;41.40;;;;;;6126626;29;20120;-77
2023/07/27 08:12:55;;;;;;;1.65;1.30;;;24.20;41.30;;;;;;6110300;29;20054;-76
2023/07/27 08:15:56;;;;;;;3.95;1.70;;;24.30;41.20;;;;;;6127443;29;20027;-75
2023/07/27 08:18:57;;;;;;;3.60;1.67;;;24.50;41.00;;;;;;6127718;29;20027;-77
2023/07/27 08:21:58;;;;;;;2.13;1.35;;;24.70;40.20;;;;;;6127590;29;20030;-76
2023/07/27 08:24:59;;;;;;;1.75;1.10;;;24.90;39.40;;;;;;6110631;29;20079;-78
2023/07/27 08:28:00;;;;;;;2.22;1.17;;;25.00;38.50;;;;;;6129122;29;20080;-77
2023/07/27 08:31:03;;;;;;;3.72;1.60;;;25.10;38.10;;;;;;6110267;29;20368;-76
2023/07/27 08:34:04;;;;;;;2.67;1.50;;;25.20;37.70;;;;;;6095376;29;20524;-77
2023/07/27 08:37:06;;;;;;;1.55;1.13;;;25.30;37.40;;;;;;6128085;29;20032;-77
2023/07/27 08:40:08;;;;;;;4.40;1.48;;;25.40;37.50;;;;;;6129777;29;20128;-76
2023/07/27 08:43:09;;;;;;;3.00;1.63;;;25.50;37.30;;;;;;6128757;29;20039;-77
2023/07/27 08:46:11;;;;;;;2.28;1.55;;;25.60;37.00;;;;;;6126352;29;20186;-79
2023/07/27 08:49:14;;;;;;;3.92;1.48;;;25.70;36.40;;;;;;6114951;29;20035;-78
2023/07/27 08:52:15;;;;;;;1.95;1.40;;;25.80;36.40;;;;;;6131140;29;20041;-78
2023/07/27 08:55:16;;;;;;;3.47;1.92;;;25.80;36.20;;;;;;6110984;29;20031;-79
2023/07/27 08:58:18;;;;;;;4.63;1.65;;;26.00;35.70;;;;;;6125750;29;20039;-76
2023/07/27 09:01:20;;;;;;;2.80;1.30;;;26.00;35.40;;;;;;6115298;29;20445;-76
2023/07/27 09:04:21;;;;;;;5.65;1.90;;;26.00;35.50;;;;;;6125503;29;20098;-78
2023/07/27 09:07:22;;;;;;;2.55;1.52;;;26.10;35.50;;;;;;6134018;29;20122;-77
2023/07/27 09:10:23;;;;;;;2.10;1.42;;;26.30;35.50;;;;;;6134730;29;20050;-76
2023/07/27 09:13:31;;;;;;;4.40;1.67;;;26.40;35.20;;;;;;6130327;29;20032;-77
2023/07/27 09:16:35;;;;;;;;;;;26.50;34.50;;;;;;6106748;29;20032;-77
2023/07/27 09:19:37;;;;;;;2.47;1.58;;;26.50;34.40;;;;;;6126079;29;19989;-76
2023/07/27 09:22:38;;;;;;;6.22;2.15;;;26.50;34.40;;;;;;6125279;29;20044;-76
2023/07/27 09:25:54;;;;;;;2.35;1.20;;;26.60;34.20;;;;;;6109431;29;20043;-77
2023/07/27 09:28:55;;;;;;;3.65;1.73;;;26.60;34.20;;;;;;6128149;29;20080;-78
2023/07/27 09:32:00;;;;;;;3.13;1.80;;;26.70;34.00;;;;;;6132034;29;20051;-79
2023/07/27 09:35:01;;;;;;;3.70;1.60;;;26.80;33.70;;;;;;6116075;29;20040;-76
2023/07/27 09:38:02;;;;;;;3.53;1.40;;;26.80;33.80;;;;;;6130535;29;20079;-76
2023/07/27 09:41:07;;;;;;;1.60;1.17;;;26.90;33.90;;;;;;6107895;29;20028;-77
2023/07/27 09:44:15;;;;;;;5.28;1.60;;;27.00;33.70;;;;;;6124068;29;20035;-80
2023/07/27 09:47:20;;;;;;;3.13;1.40;;;27.10;33.60;;;;;;6123956;29;20130;-75
2023/07/27 09:50:24;;;;;;;3.08;1.63;;;27.30;33.10;;;;;;6107829;29;20135;-77
2023/07/27 09:53:29;;;;;;;2.85;1.42;;;27.40;32.80;;;;;;6107821;29;20050;-77
2023/07/27 09:56:31;;;;;;;5.47;1.65;;;27.40;32.50;;;;;;6091905;29;20050;-76
2023/07/27 09:59:32;;;;;;;3.25;1.50;;;27.40;32.40;;;;;;6125780;29;20142;-77
2023/07/27 10:02:34;;;;;;;7.22;1.35;;;27.50;32.30;;;;;;6124498;29;20109;-77
2023/07/27 10:05:38;;;;;;;2.50;1.52;;;27.60;32.30;;;;;;6108035;29;20031;-77
2023/07/27 10:08:40;;;;;;;2.50;1.52;;;27.60;31.80;;;;;;6107554;29;20868;-78
2023/07/27 10:12:03;;;;;;;1.80;1.05;;;27.70;31.60;;;;;;6108119;29;20107;-77
2023/07/27 10:15:21;;;;;;;4.00;0.95;;;27.80;31.50;;;;;;6125697;29;20043;-76
2023/07/27 10:18:28;;;;;;;5.13;1.30;;;27.90;31.70;;;;;;6107973;29;20032;-77
2023/07/27 10:21:29;;;;;;;5.13;2.58;;;27.90;31.90;;;;;;6125753;29;20106;-77
2023/07/27 10:24:49;;;;;;;2.50;1.30;;;28.00;32.00;;;;;;6106817;29;20031;-75
2023/07/27 10:27:55;;;;;;;2.92;1.48;;;28.00;32.00;;;;;;6107393;29;20091;-76
2023/07/27 10:31:24;;;;;;;2.40;1.50;;;28.10;31.90;;;;;;6090838;29;20146;-75
2023/07/27 10:34:26;;;;;;;1.90;1.40;;;28.10;31.80;;;;;;6123694;29;20119;-77
2023/07/27 10:37:51;;;;;;;5.10;2.20;;;28.20;31.60;;;;;;6106456;29;20059;-75
2023/07/27 10:40:53;;;;;;;3.15;1.35;;;28.30;31.50;;;;;;6108374;29;20110;-77
2023/07/27 10:44:09;;;;;;;1.92;1.50;;;28.40;31.20;;;;;;6085529;29;20134;-76
2023/07/27 10:47:14;;;;;;;3.13;1.50;;;28.50;31.30;;;;;;6100231;29;20466;-76
2023/07/27 10:50:17;;;;;;;4.30;1.55;;;28.60;31.00;;;;;;6083486;29;20047;-76
2023/07/27 10:53:18;;;;;;;9.05;1.60;;;28.60;30.90;;;;;;6114364;29;20039;-76
2023/07/27 10:56:19;;;;;;;2.75;1.58;;;28.70;30.80;;;;;;6122704;29;20043;-76
2023/07/27 10:59:21;;;;;;;1.25;1.05;;;28.80;30.80;;;;;;6105754;29;20042;-76
2023/07/27 11:02:29;;;;;;;1.45;1.13;;;28.90;30.90;;;;;;6106689;29;20453;-76
2023/07/27 11:05:29;;;;;;;2.33;1.33;;;29.00;30.40;;;;;;6122087;29;20767;-76
2023/07/27 11:08:30;;;;;;;1.52;1.00;;;29.40;30.00;;;;;;6107139;29;20287;-76
2023/07/27 11:11:31;;;;;;;3.38;1.23;;;30.00;29.30;;;;;;6124013;29;20071;-76
2023/07/27 11:14:32;;;;;;;1.88;1.20;;;30.80;28.80;;;;;;6106219;29;20055;-76
2023/07/27 11:17:36;;;;;;;4.18;1.38;;;31.60;28.30;;;;;;6105877;29;20168;-76
2023/07/27 11:20:36;;;;;;;4.05;1.67;;;32.40;27.50;;;;;;6109072;29;20028;-77
2023/07/27 11:23:47;;;;;;;4.53;1.17;;;33.10;26.60;;;;;;6128730;29;20075;-77
2023/07/27 11:26:48;;;;;;;1.30;1.15;;;33.60;25.80;;;;;;6111711;29;20047;-76
2023/07/27 11:29:50;;;;;;;4.50;1.95;;;34.00;25.30;;;;;;6128426;29;20523;-77
2023/07/27 11:32:57;;;;;;;2.63;1.40;;;34.30;25.40;;;;;;6126840;29;20356;-76
2023/07/27 11:35:59;;;;;;;2.78;1.42;;;34.80;24.80;;;;;;6110342;29;20076;-76
2023/07/27 11:39:02;;;;;;;5.15;1.40;;;35.20;24.40;;;;;;6108890;29;20039;-76
2023/07/27 11:42:09;;;;;;;2.25;1.17;;;35.50;24.10;;;;;;6127057;29;20140;-77
2023/07/27 11:45:11;;;;;;;2.00;1.20;;;35.90;23.80;;;;;;6110671;29;20036;-76
2023/07/27 11:48:12;;;;;;;3.35;1.38;;;36.20;23.60;;;;;;6125866;29;20039;-77
2023/07/27 11:51:14;;;;;;;3.25;1.40;;;36.40;23.00;;;;;;6111771;29;20036;-75
2023/07/27 11:54:25;;;;;;;8.27;1.48;;;36.60;22.80;;;;;;6128660;29;20117;-77
2023/07/27 11:57:27;;;;;;;4.63;1.30;;;36.90;22.90;;;;;;6126832;29;20063;-78
2023/07/27 12:00:28;;;;;;;1.58;1.15;;;37.30;22.70;;;;;;6110488;29;20753;-77
2023/07/27 12:03:31;;;;;;;1.17;1.00;;;37.60;22.30;;;;;;6127532;29;20035;-76
2023/07/27 12:06:32;;;;;;;3.60;1.35;;;37.70;22.30;;;;;;6127052;29;20039;-75
2023/07/27 12:09:37;;;;;;;6.03;1.52;;;37.90;22.20;;;;;;6127025;29;20035;-76
2023/07/27 12:13:00;;;;;;;8.68;1.52;;;38.30;22.00;;;;;;6108621;29;20032;-75
2023/07/27 12:16:03;;;;;;;2.10;1.25;;;38.50;21.70;;;;;;6125755;29;20058;-76
2023/07/27 12:19:07;;;;;;;1.25;1.10;;;38.70;21.40;;;;;;6125872;29;20038;-77
2023/07/27 12:22:07;;;;;;;1.90;1.08;;;39.00;21.40;;;;;;6125877;29;20115;-76
2023/07/27 12:25:08;;;;;;;2.63;1.02;;;39.20;21.30;;;;;;6109139;29;20040;-76
2023/07/27 12:28:09;;;;;;;1.15;0.98;;;39.30;21.00;;;;;;6126352;29;20154;-77
2023/07/27 12:31:10;;;;;;;1.23;0.90;;;39.60;20.90;;;;;;6124875;29;20046;-76
2023/07/27 12:34:11;;;;;;;1.42;1.13;;;39.80;20.40;;;;;;6124537;29;20137;-77
2023/07/27 12:37:12;;;;;;;3.28;1.13;;;39.80;20.40;;;;;;6125496;29;20046;-76
2023/07/27 12:40:13;;;;;;;1.10;1.00;;;39.80;20.50;;;;;;6127445;29;20184;-75
2023/07/27 12:43:13;;;;;;;2.88;1.17;;;40.10;20.20;;;;;;6127550;29;20094;-77
2023/07/27 12:46:14;;;;;;;4.55;1.08;;;40.20;19.90;;;;;;6126899;29;20035;-76
2023/07/27 12:49:15;;;;;;;1.88;1.10;;;40.10;19.70;;;;;;6125007;29;20082;-77
2023/07/27 12:52:16;;;;;;;3.20;1.20;;;40.10;19.60;;;;;;6125845;29;20063;-77
2023/07/27 12:55:17;;;;;;;3.53;1.08;;;40.00;19.50;;;;;;6109163;29;20032;-76
2023/07/27 12:58:18;;;;;;;1.27;1.02;;;39.90;19.40;;;;;;6109039;29;20040;-78
2023/07/27 13:01:18;;;;;;;1.35;0.90;;;40.20;19.50;;;;;;6126457;29;20211;-77
2023/07/27 13:04:19;;;;;;;2.28;1.33;;;40.70;19.40;;;;;;6108225;29;20039;-77
2023/07/27 13:07:20;;;;;;;1.23;0.90;;;41.40;18.80;;;;;;6107496;29;20039;-76
2023/07/27 13:10:21;;;;;;;3.63;1.33;;;41.90;18.40;;;;;;6108391;29;20094;-77
2023/07/27 13:13:22;;;;;;;3.92;1.20;;;42.40;17.80;;;;;;6125459;29;20024;-77
2023/07/27 13:16:23;;;;;;;1.25;0.95;;;42.70;17.50;;;;;;6108599;29;20372;-75
2023/07/27 13:19:23;;;;;;;1.30;1.10;;;43.10;17.40;;;;;;6108013;29;20032;-76
2023/07/27 13:22:24;;;;;;;1.23;1.05;;;43.50;17.00;;;;;;6107856;29;20441;-76
2023/07/27 13:25:25;;;;;;;1.10;0.80;;;43.90;16.80;;;;;;6124749;29;20334;-77
2023/07/27 13:28:26;;;;;;;1.98;1.10;;;44.40;16.70;;;;;;6107947;29;20040;-76
2023/07/27 13:31:27;;;;;;;3.22;0.98;;;44.90;16.30;;;;;;6107468;29;20036;-77
2023/07/27 13:34:28;;;;;;;1.80;1.30;;;45.20;16.00;;;;;;6091658;29;20036;-76
2023/07/27 13:37:31;;;;;;;1.17;1.02;;;45.40;15.80;;;;;;6124685;29;20076;-77
2023/07/27 13:40:32;;;;;;;1.25;1.10;;;46.00;15.50;;;;;;6107569;29;20038;-77
2023/07/27 13:43:36;;;;;;;8.15;1.90;;;46.40;15.20;;;;;;6107504;29;20035;-78
2023/07/27 13:46:37;;;;;;;1.08;0.80;;;46.50;15.00;;;;;;6107126;29;20036;-76
2023/07/27 13:49:38;;;;;;;3.83;1.02;;;46.60;14.90;;;;;;6125337;29;20070;-78
2023/07/27 13:52:39;;;;;;;2.17;1.20;;;46.80;14.80;;;;;;6107621;29;20400;-76
2023/07/27 13:55:40;;;;;;;2.28;1.13;;;46.90;14.60;;;;;;6107528;29;20415;-77
2023/07/27 13:58:40;;;;;;;1.08;0.85;;;46.90;14.50;;;;;;6124617;29;20373;-77
2023/07/27 14:01:41;;;;;;;1.60;1.00;;;47.00;14.60;;;;;;6124796;29;20086;-75
2023/07/27 14:04:42;;;;;;;1.80;0.93;;;47.30;14.50;;;;;;6107643;29;20031;-78
2023/07/27 14:07:43;;;;;;;4.53;0.95;;;47.10;14.40;;;;;;6092111;29;20039;-76
2023/07/27 14:10:44;;;;;;;1.98;0.77;;;47.10;14.50;;;;;;6107323;29;20031;-76
2023/07/27 14:13:45;;;;;;;1.02;0.82;;;47.60;14.40;;;;;;6106842;29;20507;-76
2023/07/27 14:16:45;;;;;;;1.08;0.82;;;47.80;14.20;;;;;;6123727;29;20118;-76
2023/07/27 14:19:46;;;;;;;1.17;0.88;;;47.90;14.20;;;;;;6106686;29;20032;-77
2023/07/27 14:22:47;;;;;;;1.75;1.10;;;48.20;14.10;;;;;;6106361;29;20024;-77
2023/07/27 14:25:48;;;;;;;1.27;0.90;;;47.90;14.50;;;;;;6123387;29;20031;-76
2023/07/27 14:28:49;;;;;;;1.10;0.93;;;47.60;14.10;;;;;;6106242;29;20126;-76
2023/07/27 14:31:50;;;;;;;1.92;1.00;;;47.60;14.10;;;;;;6123613;29;20070;-75
2023/07/27 14:34:50;;;;;;;2.60;0.98;;;48.00;14.10;;;;;;6124755;29;20042;-76
2023/07/27 14:37:51;;;;;;;1.27;0.90;;;48.10;13.80;;;;;;6123579;29;20059;-76
2023/07/27 14:40:55;;;;;;;1.17;1.02;;;47.80;13.90;;;;;;6124768;29;20388;-78
2023/07/27 14:43:56;;;;;;;2.53;1.00;;;47.80;14.20;;;;;;6124824;29;20058;-78
2023/07/27 14:46:57;;;;;;;4.72;0.93;;;48.00;14.10;;;;;;6124749;29;20056;-77
2023/07/27 14:49:59;;;;;;;0.95;0.90;;;48.20;14.00;;;;;;6125266;29;20036;-77
2023/07/27 14:52:59;;;;;;;5.03;1.13;;;48.40;13.90;;;;;;6106799;29;20040;-78
2023/07/27 14:56:00;;;;;;;3.00;0.73;;;48.30;13.80;;;;;;6125428;29;20686;-78
2023/07/27 14:59:01;;;;;;;1.92;1.00;;;47.90;14.00;;;;;;6111553;29;20047;-75
2023/07/27 15:02:05;;;;;;;1.02;0.90;;;47.60;14.20;;;;;;6126822;29;20054;-76
2023/07/27 15:05:06;;;;;;;0.80;0.80;;;46.60;14.80;;;;;;6126625;29;20369;-79
2023/07/27 15:08:06;;;;;;;1.25;0.90;;;44.80;15.80;;;;;;6126489;29;20035;-76
2023/07/27 15:11:07;;;;;;;1.65;0.98;;;43.00;16.90;;;;;;6109720;29;20046;-77
2023/07/27 15:14:08;;;;;;;2.65;0.90;;;41.60;17.90;;;;;;6110465;29;20050;-76
2023/07/27 15:17:09;;;;;;;4.22;1.10;;;40.40;18.80;;;;;;6094959;29;20127;-77
2023/07/27 15:20:10;;;;;;;1.30;1.20;;;39.40;19.40;;;;;;6110011;29;20044;-76
2023/07/27 15:23:11;;;;;;;2.58;1.00;;;38.70;20.20;;;;;;6110848;29;20108;-77
2023/07/27 15:26:11;;;;;;;1.40;1.17;;;38.10;20.80;;;;;;6126537;29;20070;-75
2023/07/27 15:29:12;;;;;;;1.58;1.10;;;37.90;21.20;;;;;;6126994;29;20047;-77
2023/07/27 15:32:13;;;;;;;1.70;0.93;;;38.90;20.80;;;;;;6127051;29;20106;-76
2023/07/27 15:35:14;;;;;;;2.33;1.00;;;40.00;20.00;;;;;;6131230;29;20066;-76
2023/07/27 15:38:15;;;;;;;1.38;0.85;;;40.90;19.40;;;;;;6110219;29;20044;-76
2023/07/27 15:41:16;;;;;;;1.00;0.80;;;41.90;18.90;;;;;;6127271;29;20532;-76
2023/07/27 15:44:17;;;;;;;3.78;0.90;;;42.60;18.40;;;;;;6109998;29;20077;-76
2023/07/27 15:47:17;;;;;;;5.63;1.10;;;43.50;18.00;;;;;;6110338;29;20063;-76
2023/07/27 15:50:18;;;;;;;0.80;0.80;;;44.30;17.60;;;;;;6127485;29;20043;-76